createdAt,value
2023-05-01T00:01:00.362Z,25.30
2023-05-01T00:03:27.786Z,21.52
2023-05-01T00:06:01.580Z,18.27
2023-05-01T00:08:28.613Z,18.42
2023-05-01T00:10:56.143Z,21.90
2023-05-01T00:13:24.610Z,15.70
2023-05-01T00:15:52.504Z,18.02
2023-05-01T00:18:19.819Z,17.35
2023-05-01T00:20:46.736Z,23.65
2023-05-01T00:23:14.092Z,14.93
2023-05-01T00:25:40.971Z,16.13
2023-05-01T00:28:08.061Z,22.30
2023-05-01T00:30:35.869Z,20.90
2023-05-01T00:33:02.797Z,19.35
2023-05-01T00:35:31.611Z,19.15
2023-05-01T00:37:58.843Z,18.33
2023-05-01T00:40:26.188Z,19.42
2023-05-01T00:42:53.213Z,19.85
2023-05-01T00:45:20.621Z,17.52
2023-05-01T00:47:48.237Z,18.23
2023-05-01T00:50:15.301Z,20.48
2023-05-01T00:52:42.750Z,17.58
2023-05-01T00:55:09.931Z,19.67
2023-05-01T00:57:37.369Z,16.15
2023-05-01T01:00:05.682Z,18.05
2023-05-01T01:02:33.371Z,14.77
2023-05-01T01:05:00.398Z,13.90
2023-05-01T01:07:36.429Z,14.98
2023-05-01T01:10:21.710Z,15.48
2023-05-01T01:13:06.864Z,12.73
2023-05-01T01:15:48.413Z,16.50
2023-05-01T01:18:40.725Z,11.55
2023-05-01T01:21:27.736Z,14.90
2023-05-01T01:24:26.515Z,13.80
2023-05-01T01:28:02.472Z,13.75
2023-05-01T01:30:58.582Z,15.35
2023-05-01T01:34:02.414Z,14.95
2023-05-01T01:36:38.144Z,18.52
2023-05-01T01:39:15.292Z,12.63
2023-05-01T01:41:50.325Z,14.40
2023-05-01T01:44:24.905Z,14.05
2023-05-01T01:46:54.694Z,11.80
2023-05-01T01:49:27.060Z,21.17
2023-05-01T01:51:57.042Z,17.40
2023-05-01T01:54:33.467Z,12.57
2023-05-01T01:57:02.848Z,16.23
2023-05-01T01:59:34.747Z,18.13
2023-05-01T02:02:03.673Z,16.70
2023-05-01T02:04:33.205Z,12.93
2023-05-01T02:07:01.714Z,17.05
2023-05-01T02:09:31.476Z,11.57
2023-05-01T02:12:00.568Z,14.45
2023-05-01T02:14:28.366Z,17.92
2023-05-01T02:16:57.564Z,17.33
2023-05-01T02:19:26.586Z,16.55
2023-05-01T02:21:57.915Z,18.38
2023-05-01T02:24:27.932Z,18.10
2023-05-01T02:27:03.563Z,15.45
2023-05-01T02:29:30.848Z,21.70
2023-05-01T02:31:57.835Z,16.85
2023-05-01T02:34:24.781Z,18.08
2023-05-01T02:36:51.992Z,16.55
2023-05-01T02:39:19.154Z,15.43
2023-05-01T02:41:49.290Z,17.63
2023-05-01T02:44:16.763Z,14.90
2023-05-01T02:46:47.417Z,17.67
2023-05-01T02:49:17.107Z,17.67
2023-05-01T02:51:45.364Z,16.52
2023-05-01T02:54:13.702Z,16.85
2023-05-01T02:56:40.625Z,16.15
2023-05-01T02:59:07.725Z,17.90
2023-05-01T03:01:34.721Z,16.20
2023-05-01T03:04:01.985Z,21.23
2023-05-01T03:06:29.812Z,18.98
2023-05-01T03:08:56.834Z,15.93
2023-05-01T03:11:24.632Z,15.88
2023-05-01T03:13:51.540Z,14.23
2023-05-01T03:16:18.897Z,14.35
2023-05-01T03:18:46.224Z,18.55
2023-05-01T03:21:13.291Z,16.30
2023-05-01T03:23:40.635Z,14.18
2023-05-01T03:26:07.968Z,16.85
2023-05-01T03:28:35.059Z,17.35
2023-05-01T03:31:01.971Z,20.23
2023-05-01T03:33:29.065Z,11.85
2023-05-01T03:36:05.833Z,12.93
2023-05-01T03:38:33.509Z,15.85
2023-05-01T03:41:00.526Z,14.93
2023-05-01T03:43:27.508Z,14.70
2023-05-01T03:45:54.607Z,18.67
2023-05-01T03:48:21.845Z,21.80
2023-05-01T03:50:48.695Z,17.08
2023-05-01T03:53:15.638Z,14.85
2023-05-01T03:55:42.980Z,13.40
2023-05-01T03:58:11.058Z,13.15
2023-05-01T04:00:38.146Z,13.73
2023-05-01T04:03:05.597Z,19.23
2023-05-01T04:05:33.638Z,14.27
2023-05-01T04:08:00.576Z,13.95
2023-05-01T04:10:27.532Z,17.38
2023-05-01T04:12:54.398Z,15.38
2023-05-01T04:15:23.065Z,17.02
2023-05-01T04:17:50.343Z,15.68
2023-05-01T04:20:19.355Z,16.50
2023-05-01T04:22:46.249Z,16.33
2023-05-01T04:25:13.128Z,17.85
2023-05-01T04:27:40.168Z,13.13
2023-05-01T04:30:07.918Z,15.50
2023-05-01T04:32:35.807Z,17.77
2023-05-01T04:35:04.192Z,19.23
2023-05-01T04:37:31.502Z,21.33
2023-05-01T04:39:58.597Z,12.52
2023-05-01T04:42:32.261Z,14.98
2023-05-01T04:45:04.366Z,16.10
2023-05-01T04:47:31.669Z,15.48
2023-05-01T04:49:58.743Z,16.42
2023-05-01T04:52:25.788Z,20.00
2023-05-01T04:54:53.301Z,16.08
2023-05-01T04:57:20.260Z,18.65
2023-05-01T04:59:48.045Z,24.10
2023-05-01T05:02:14.939Z,18.30
2023-05-01T05:04:41.915Z,16.95
2023-05-01T05:07:09.654Z,19.45
2023-05-01T05:09:36.647Z,14.60
2023-05-01T05:12:04.930Z,17.08
2023-05-01T05:14:31.970Z,18.08
2023-05-01T05:16:58.978Z,19.27
2023-05-01T05:19:26.507Z,19.45
2023-05-01T05:21:53.380Z,14.40
2023-05-01T05:24:20.317Z,15.38
2023-05-01T05:26:47.301Z,14.75
2023-05-01T05:29:14.610Z,18.40
2023-05-01T05:31:41.692Z,14.40
2023-05-01T05:34:08.751Z,16.33
2023-05-01T05:36:36.243Z,24.17
2023-05-01T05:39:03.822Z,19.08
2023-05-01T05:41:30.800Z,22.55
2023-05-01T05:43:57.946Z,25.63
2023-05-01T05:46:25.281Z,22.98
2023-05-01T05:48:52.891Z,21.77
2023-05-01T05:51:19.838Z,19.40
2023-05-01T05:53:47.131Z,15.60
2023-05-01T05:56:14.412Z,17.80
2023-05-01T05:58:41.364Z,20.50
2023-05-01T06:01:09.789Z,20.75
2023-05-01T06:03:37.530Z,17.48
2023-05-01T06:06:05.159Z,17.42
2023-05-01T06:08:32.689Z,23.10
2023-05-01T06:10:59.565Z,19.63
2023-05-01T06:13:27.021Z,17.42
2023-05-01T06:15:54.091Z,18.98
2023-05-01T06:18:21.290Z,14.90
2023-05-01T06:20:48.313Z,16.50
2023-05-01T06:23:15.750Z,20.10
2023-05-01T06:25:43.092Z,17.58
2023-05-01T06:28:10.046Z,18.08
2023-05-01T06:30:37.134Z,17.80
2023-05-01T06:33:04.700Z,17.45
2023-05-01T06:35:32.029Z,20.85
2023-05-01T06:38:00.444Z,20.27
2023-05-01T06:40:27.477Z,18.40
2023-05-01T06:42:54.391Z,22.10
2023-05-01T06:45:21.463Z,16.42
2023-05-01T06:47:48.465Z,19.58
2023-05-01T06:50:15.572Z,20.10
2023-05-01T06:52:42.548Z,17.50
2023-05-01T06:55:10.068Z,16.38
2023-05-01T06:57:37.027Z,16.23
2023-05-01T07:00:04.522Z,15.77
2023-05-01T07:02:31.673Z,12.95
2023-05-01T07:04:58.724Z,15.63
2023-05-01T07:07:25.913Z,14.27
2023-05-01T07:09:52.810Z,14.43
2023-05-01T07:12:19.679Z,16.80
2023-05-01T07:14:46.872Z,11.35
2023-05-01T07:17:13.756Z,15.75
2023-05-01T07:19:40.632Z,15.45
2023-05-01T07:22:07.651Z,14.38
2023-05-01T07:24:34.558Z,11.50
2023-05-01T07:27:01.611Z,15.23
2023-05-01T07:29:28.677Z,10.85
2023-05-01T07:31:55.865Z,12.82
2023-05-01T07:34:23.132Z,10.40
2023-05-01T07:36:50.066Z,10.73
2023-05-01T07:39:18.086Z,12.05
2023-05-01T07:41:45.060Z,12.23
2023-05-01T07:44:11.931Z,11.20
2023-05-01T07:46:39.269Z,13.23
2023-05-01T07:49:06.222Z,12.63
2023-05-01T07:51:33.523Z,10.52
2023-05-01T07:54:04.871Z,8.20
2023-05-01T07:56:32.133Z,12.20
2023-05-01T07:58:59.154Z,10.05
2023-05-01T08:01:26.713Z,11.05
2023-05-01T08:03:53.860Z,9.20
2023-05-01T08:06:20.909Z,8.63
2023-05-01T08:08:48.058Z,14.20
2023-05-01T08:11:15.017Z,10.75
2023-05-01T08:13:42.274Z,11.32
2023-05-01T08:16:09.398Z,11.20
2023-05-01T08:18:36.304Z,10.23
2023-05-01T08:21:03.759Z,10.80
2023-05-01T08:23:30.904Z,7.95
2023-05-01T08:25:58.565Z,9.68
2023-05-01T08:28:25.643Z,8.20
2023-05-01T08:30:52.601Z,10.73
2023-05-01T08:33:19.970Z,12.38
2023-05-01T08:35:46.904Z,8.07
2023-05-01T08:38:13.793Z,7.55
2023-05-01T08:40:48.664Z,7.60
2023-05-01T08:43:16.159Z,7.93
2023-05-01T08:45:44.724Z,6.70
2023-05-01T08:48:13.364Z,7.18
2023-05-01T08:50:45.887Z,10.15
2023-05-01T08:53:16.314Z,7.97
2023-05-01T08:55:48.345Z,8.43
2023-05-01T08:58:17.107Z,8.63
2023-05-01T09:00:45.615Z,11.07
2023-05-01T09:03:16.721Z,8.18
2023-05-01T09:05:44.131Z,5.85
2023-05-01T09:08:11.136Z,5.18
2023-05-01T09:10:46.725Z,4.68
2023-05-01T09:13:13.593Z,6.35
2023-05-01T09:15:40.691Z,5.95
2023-05-01T09:18:09.424Z,9.63
2023-05-01T09:20:38.107Z,9.32
2023-05-01T09:23:05.271Z,7.50
2023-05-01T09:25:32.308Z,9.15
2023-05-01T09:27:59.257Z,5.88
2023-05-01T09:30:39.665Z,5.95
2023-05-01T09:33:15.181Z,6.53
2023-05-01T09:35:56.293Z,6.65
2023-05-01T09:38:28.836Z,4.95
2023-05-01T09:41:05.436Z,5.22
2023-05-01T09:43:32.519Z,5.10
2023-05-01T09:46:07.111Z,3.17
2023-05-01T09:48:37.806Z,5.65
2023-05-01T09:51:32.567Z,6.55
2023-05-01T09:54:05.258Z,7.57
2023-05-01T09:56:37.549Z,6.93
2023-05-01T09:59:21.314Z,5.60
2023-05-01T10:01:50.818Z,3.78
2023-05-01T10:04:18.423Z,3.97
2023-05-01T10:06:45.486Z,6.38
2023-05-01T10:09:17.821Z,8.25
2023-05-01T10:11:49.711Z,5.28
2023-05-01T10:14:17.068Z,6.18
2023-05-01T10:16:45.106Z,5.88
2023-05-01T10:19:13.114Z,4.97
2023-05-01T10:21:40.091Z,2.45
2023-05-01T10:24:09.849Z,4.93
2023-05-01T10:26:38.062Z,5.40
2023-05-01T10:29:05.323Z,7.35
2023-05-01T10:31:33.367Z,4.63
2023-05-01T10:34:02.376Z,5.28
2023-05-01T10:36:39.522Z,5.20
2023-05-01T10:39:07.451Z,5.03
2023-05-01T10:41:59.389Z,3.65
2023-05-01T10:44:27.440Z,4.78
2023-05-01T10:46:55.204Z,4.53
2023-05-01T10:49:22.755Z,3.10
2023-05-01T10:52:01.601Z,5.90
2023-05-01T10:54:29.809Z,2.97
2023-05-01T10:57:01.434Z,4.68
2023-05-01T11:00:04.265Z,4.95
2023-05-01T11:02:31.204Z,5.65
2023-05-01T11:04:58.424Z,5.78
2023-05-01T11:07:26.444Z,4.28
2023-05-01T11:09:57.710Z,2.67
2023-05-01T11:12:46.945Z,2.53
2023-05-01T11:15:32.865Z,3.53
2023-05-01T11:18:04.091Z,5.13
2023-05-01T11:20:37.048Z,4.53
2023-05-01T11:23:04.174Z,4.10
2023-05-01T11:25:33.187Z,4.78
2023-05-01T11:28:04.418Z,4.50
2023-05-01T11:30:39.080Z,5.75
2023-05-01T11:33:10.092Z,3.60
2023-05-01T11:35:39.589Z,4.13
2023-05-01T11:38:06.623Z,4.18
2023-05-01T11:40:35.307Z,3.25
2023-05-01T11:43:08.239Z,5.18
2023-05-01T11:45:37.429Z,3.42
2023-05-01T11:48:05.774Z,2.70
2023-05-01T11:50:41.881Z,3.80
2023-05-01T11:53:15.999Z,3.33
2023-05-01T11:55:43.672Z,2.37
2023-05-01T11:58:11.086Z,3.00
2023-05-01T12:00:42.367Z,7.40
2023-05-01T12:03:13.729Z,9.20
2023-05-01T12:09:39.066Z,5.78
2023-05-01T12:12:06.413Z,7.03
2023-05-01T12:14:33.399Z,6.05
2023-05-01T12:17:00.540Z,2.80
2023-05-01T12:19:27.522Z,4.25
2023-05-01T12:22:09.800Z,3.20
2023-05-01T12:24:37.930Z,1.70
2023-05-01T12:27:05.644Z,1.70
2023-05-01T12:29:42.116Z,2.75
2023-05-01T12:32:09.520Z,1.90
2023-05-01T12:34:37.078Z,1.52
2023-05-01T12:38:16.179Z,5.35
2023-05-01T12:40:57.918Z,1.63
2023-05-01T12:43:37.288Z,3.45
2023-05-01T12:46:06.093Z,4.18
2023-05-01T12:48:34.485Z,2.83
2023-05-01T12:51:01.905Z,2.83
2023-05-01T12:53:30.029Z,2.35
2023-05-01T12:56:50.381Z,4.50
2023-05-01T12:59:28.229Z,6.07
2023-05-01T13:02:03.698Z,5.10
2023-05-01T13:04:31.028Z,4.30
2023-05-01T13:06:58.974Z,4.35
2023-05-01T13:09:32.768Z,8.35
2023-05-01T13:12:09.188Z,14.48
2023-05-01T13:14:39.170Z,4.72
2023-05-01T13:17:32.685Z,4.45
2023-05-01T13:20:05.223Z,3.20
2023-05-01T13:22:33.112Z,2.67
2023-05-01T13:25:03.278Z,2.80
2023-05-01T13:27:30.443Z,4.97
2023-05-01T13:30:00.028Z,5.88
2023-05-01T13:32:27.750Z,5.63
2023-05-01T13:34:54.738Z,4.03
2023-05-01T13:37:22.557Z,3.25
2023-05-01T13:39:49.726Z,3.03
2023-05-01T13:42:25.048Z,3.78
2023-05-01T13:44:54.906Z,2.35
2023-05-01T13:47:26.643Z,3.40
2023-05-01T13:49:54.260Z,2.92
2023-05-01T13:52:21.613Z,2.80
2023-05-01T13:54:49.136Z,2.78
2023-05-01T13:57:17.464Z,2.47
2023-05-01T13:59:47.222Z,2.83
2023-05-01T14:02:27.430Z,4.43
2023-05-01T14:04:57.067Z,3.67
2023-05-01T14:07:25.851Z,6.53
2023-05-01T14:10:00.243Z,4.85
2023-05-01T14:12:30.277Z,6.90
2023-05-01T14:14:58.447Z,5.95
2023-05-01T14:17:38.098Z,4.75
2023-05-01T14:20:11.215Z,3.83
2023-05-01T14:22:48.433Z,6.20
2023-05-01T14:25:31.617Z,4.45
2023-05-01T14:28:01.302Z,3.13
2023-05-01T14:30:38.892Z,3.60
2023-05-01T14:33:14.447Z,4.50
2023-05-01T14:35:50.573Z,5.10
2023-05-01T14:38:20.102Z,4.03
2023-05-01T14:40:57.933Z,3.78
2023-05-01T14:43:25.067Z,6.07
2023-05-01T14:45:53.091Z,4.38
2023-05-01T14:48:29.405Z,3.80
2023-05-01T14:50:58.869Z,2.70
2023-05-01T14:53:32.636Z,4.43
2023-05-01T14:56:02.106Z,4.40
2023-05-01T14:58:29.393Z,3.22
2023-05-01T15:00:57.693Z,3.50
2023-05-01T15:03:24.806Z,3.97
2023-05-01T15:05:52.577Z,5.63
2023-05-01T15:08:24.923Z,4.00
2023-05-01T15:10:55.827Z,4.25
2023-05-01T15:13:22.997Z,3.08
2023-05-01T15:15:50.388Z,6.20
2023-05-01T15:18:17.881Z,2.78
2023-05-01T15:20:45.632Z,5.22
2023-05-01T15:23:13.019Z,2.92
2023-05-01T15:25:40.077Z,2.47
2023-05-01T15:28:07.241Z,2.50
2023-05-01T15:30:34.877Z,2.58
2023-05-01T15:33:05.800Z,3.83
2023-05-01T15:35:34.093Z,2.20
2023-05-01T15:38:01.174Z,3.80
2023-05-01T15:40:28.487Z,4.57
2023-05-01T15:42:56.639Z,3.95
2023-05-01T15:45:23.802Z,2.60
2023-05-01T15:47:51.657Z,2.05
2023-05-01T15:50:22.174Z,2.88
2023-05-01T15:52:50.087Z,2.13
2023-05-01T15:55:18.736Z,3.35
2023-05-01T15:57:47.882Z,4.25
2023-05-01T16:00:17.323Z,4.47
2023-05-01T16:02:45.167Z,3.85
2023-05-01T16:05:15.597Z,4.75
2023-05-01T16:07:45.497Z,2.05
2023-05-01T16:10:12.867Z,3.13
2023-05-01T16:12:40.364Z,2.88
2023-05-01T16:15:09.102Z,2.83
2023-05-01T16:17:44.262Z,3.72
2023-05-01T16:20:14.870Z,2.08
2023-05-01T16:22:43.550Z,2.38
2023-05-01T16:25:13.636Z,2.88
2023-05-01T16:27:44.682Z,2.75
2023-05-01T16:30:14.894Z,3.33
2023-05-01T16:32:43.729Z,3.42
2023-05-01T16:35:15.592Z,3.33
2023-05-01T16:37:42.605Z,2.70
2023-05-01T16:40:10.620Z,1.38
2023-05-01T16:42:39.235Z,2.03
2023-05-01T16:45:13.099Z,2.35
2023-05-01T16:47:40.654Z,2.25
2023-05-01T16:50:10.337Z,2.10
2023-05-01T16:52:40.756Z,4.25
2023-05-01T16:55:08.285Z,2.00
2023-05-01T16:57:35.339Z,2.40
2023-05-01T17:00:03.525Z,2.03
2023-05-01T17:02:30.753Z,2.78
2023-05-01T17:04:57.723Z,1.70
2023-05-01T17:07:24.784Z,2.55
2023-05-01T17:09:51.861Z,1.60
2023-05-01T17:12:18.877Z,3.40
2023-05-01T17:14:46.321Z,1.50
2023-05-01T17:17:13.512Z,2.22
2023-05-01T17:19:40.719Z,1.70
2023-05-01T17:22:09.391Z,2.92
2023-05-01T17:24:37.136Z,2.03
2023-05-01T17:27:04.398Z,2.75
2023-05-01T17:29:38.696Z,3.35
2023-05-01T17:32:33.525Z,3.33
2023-05-01T17:35:13.282Z,1.77
2023-05-01T17:37:50.433Z,4.43
2023-05-01T17:40:29.238Z,1.95
2023-05-01T17:43:06.009Z,2.20
2023-05-01T17:45:48.487Z,3.53
2023-05-01T17:48:24.682Z,4.10
2023-05-01T17:51:08.059Z,2.97
2023-05-01T17:54:18.206Z,2.85
2023-05-01T17:56:54.863Z,2.15
2023-05-01T18:00:03.232Z,3.28
2023-05-01T18:02:35.860Z,2.28
2023-05-01T18:05:13.913Z,3.45
2023-05-01T18:07:49.232Z,3.20
2023-05-01T18:10:19.685Z,2.38
2023-05-01T18:12:50.180Z,3.83
2023-05-01T18:15:24.673Z,3.47
2023-05-01T18:17:55.647Z,3.13
2023-05-01T18:20:27.971Z,4.53
2023-05-01T18:23:03.874Z,5.15
2023-05-01T18:25:32.723Z,6.20
2023-05-01T18:28:13.148Z,5.70
2023-05-01T18:31:10.392Z,11.90
2023-05-01T18:33:48.690Z,5.05
2023-05-01T18:36:16.152Z,6.28
2023-05-01T18:38:44.845Z,5.45
2023-05-01T18:41:13.500Z,6.18
2023-05-01T18:43:41.989Z,7.00
2023-05-01T18:46:11.556Z,6.40
2023-05-01T18:48:39.132Z,5.50
2023-05-01T18:51:09.049Z,5.97
2023-05-01T18:53:39.038Z,5.47
2023-05-01T18:56:09.946Z,4.53
2023-05-01T18:58:37.682Z,4.50
2023-05-01T19:01:08.157Z,3.78
2023-05-01T19:03:36.011Z,4.38
2023-05-01T19:06:03.257Z,7.50
2023-05-01T19:08:31.969Z,7.43
2023-05-01T19:10:59.149Z,5.20
2023-05-01T19:13:44.306Z,4.50
2023-05-01T19:16:11.943Z,6.03
2023-05-01T19:18:39.245Z,8.48
2023-05-01T19:21:06.503Z,8.52
2023-05-01T19:23:37.752Z,5.30
2023-05-01T19:26:06.983Z,6.65
2023-05-01T19:28:36.675Z,5.68
2023-05-01T19:31:08.111Z,5.43
2023-05-01T19:33:35.805Z,6.68
2023-05-01T19:36:02.969Z,6.07
2023-05-01T19:38:31.322Z,7.05
2023-05-01T19:40:58.400Z,14.82
2023-05-01T19:43:25.564Z,13.32
2023-05-01T19:45:53.836Z,10.98
2023-05-01T19:48:20.977Z,7.70
2023-05-01T19:50:51.392Z,6.95
2023-05-01T19:53:18.901Z,8.27
2023-05-01T19:55:47.776Z,8.98
2023-05-01T19:58:47.467Z,6.63
2023-05-01T20:01:14.698Z,7.38
2023-05-01T20:03:41.880Z,7.63
2023-05-01T20:06:11.623Z,9.75
2023-05-01T20:08:38.860Z,11.10
2023-05-01T20:11:09.799Z,8.35
2023-05-01T20:13:40.303Z,8.85
2023-05-01T20:16:10.440Z,8.30
2023-05-01T20:18:37.644Z,8.05
2023-05-01T20:21:06.340Z,8.13
2023-05-01T20:23:35.026Z,7.95
2023-05-01T20:26:02.270Z,11.15
2023-05-01T20:28:29.597Z,7.85
2023-05-01T20:30:59.532Z,10.80
2023-05-01T20:33:26.966Z,9.68
2023-05-01T20:35:56.889Z,9.23
2023-05-01T20:38:27.831Z,10.05
2023-05-01T20:40:55.061Z,9.43
2023-05-01T20:43:35.987Z,10.52
2023-05-01T20:46:06.904Z,9.95
2023-05-01T20:48:37.144Z,10.10
2023-05-01T20:51:06.642Z,9.57
2023-05-01T20:53:36.873Z,8.82
2023-05-01T20:56:12.694Z,9.75
2023-05-01T20:58:44.504Z,10.25
2023-05-01T21:01:16.613Z,10.73
2023-05-01T21:03:46.567Z,9.43
2023-05-01T21:06:16.363Z,10.52
2023-05-01T21:08:43.775Z,13.88
2023-05-01T21:11:13.378Z,13.15
2023-05-01T21:13:43.994Z,12.95
2023-05-01T21:16:23.509Z,14.20
2023-05-01T21:18:58.885Z,11.35
2023-05-01T21:21:31.665Z,13.13
2023-05-01T21:24:02.101Z,14.88
2023-05-01T21:26:32.525Z,12.75
2023-05-01T21:29:00.707Z,10.98
2023-05-01T21:31:37.049Z,14.43
2023-05-01T21:34:11.149Z,13.35
2023-05-01T21:36:47.031Z,14.35
2023-05-01T21:39:29.405Z,14.23
2023-05-01T21:41:59.556Z,13.13
2023-05-01T21:44:50.680Z,12.88
2023-05-01T21:47:18.435Z,13.32
2023-05-01T21:49:48.841Z,12.38
2023-05-01T21:52:22.167Z,14.30
2023-05-01T21:55:08.339Z,14.90
2023-05-01T21:57:47.946Z,11.90
2023-05-01T22:00:30.899Z,15.32
2023-05-01T22:03:21.623Z,16.23
2023-05-01T22:05:51.090Z,14.32
2023-05-01T22:08:18.716Z,17.17
2023-05-01T22:10:46.632Z,16.75
2023-05-01T22:13:18.481Z,16.35
2023-05-01T22:15:56.836Z,15.30
2023-05-01T22:18:58.452Z,16.33
2023-05-01T22:25:22.282Z,16.52
2023-05-01T22:32:12.028Z,15.57
2023-05-01T22:38:43.275Z,14.02
2023-05-01T22:45:09.121Z,12.68
2023-05-01T22:51:07.927Z,14.52
2023-05-01T22:53:38.580Z,16.08
2023-05-01T22:56:52.677Z,14.75
2023-05-01T23:03:40.217Z,20.50
2023-05-01T23:14:25.731Z,19.13
2023-05-01T23:24:54.015Z,15.02
2023-05-01T23:41:56.777Z,11.98
2023-05-01T23:48:22.995Z,14.55
2023-05-01T23:54:47.413Z,13.65
